createdAt,value
2023-01-21T00:00:58.792Z,99121.88
2023-01-21T00:03:25.543Z,99128.84
2023-01-21T00:05:52.330Z,99123.00
2023-01-21T00:08:18.977Z,99124.88
2023-01-21T00:10:45.699Z,99121.25
2023-01-21T00:13:12.336Z,99122.88
2023-01-21T00:15:39.159Z,99119.25
2023-01-21T00:18:07.878Z,99125.53
2023-01-21T00:20:34.655Z,99119.63
2023-01-21T00:23:01.509Z,99119.00
2023-01-21T00:25:28.495Z,99133.41
2023-01-21T00:27:55.193Z,99129.41
2023-01-21T00:30:22.497Z,99128.63
2023-01-21T00:32:49.094Z,99132.44
2023-01-21T00:35:16.106Z,99144.88
2023-01-21T00:37:42.879Z,99135.53
2023-01-21T00:40:10.041Z,99135.78
2023-01-21T00:42:36.747Z,99135.09
2023-01-21T00:45:03.704Z,99143.06
2023-01-21T00:47:30.384Z,99152.69
2023-01-21T00:49:57.097Z,99150.13
2023-01-21T00:52:23.841Z,99154.59
2023-01-21T00:54:50.491Z,99153.84
2023-01-21T00:57:17.196Z,99165.19
2023-01-21T00:59:44.084Z,99162.81
2023-01-21T01:02:10.953Z,99166.34
2023-01-21T01:04:37.657Z,99170.69
2023-01-21T01:07:04.679Z,99170.81
2023-01-21T01:09:31.780Z,99167.53
2023-01-21T01:11:58.795Z,99175.38
2023-01-21T01:14:25.647Z,99174.44
2023-01-21T01:16:52.464Z,99176.94
2023-01-21T01:19:19.087Z,99176.06
2023-01-21T01:21:45.846Z,99180.41
2023-01-21T01:24:12.391Z,99183.22
2023-01-21T01:26:41.843Z,99184.88
2023-01-21T01:29:12.560Z,99188.41
2023-01-21T01:31:39.331Z,99196.16
2023-01-21T01:34:06.080Z,99193.56
2023-01-21T01:36:32.680Z,99196.28
2023-01-21T01:38:59.270Z,99190.34
2023-01-21T01:41:28.766Z,99199.88
2023-01-21T01:43:59.826Z,99193.88
2023-01-21T01:46:29.238Z,99201.63
2023-01-21T01:49:18.995Z,99207.78
2023-01-21T01:52:03.178Z,99207.56
2023-01-21T01:54:34.269Z,99209.31
2023-01-21T01:57:05.281Z,99210.84
2023-01-21T01:59:33.271Z,99215.84
2023-01-21T02:02:06.714Z,99220.03
2023-01-21T02:04:40.389Z,99221.94
2023-01-21T02:07:07.647Z,99217.81
2023-01-21T02:09:34.543Z,99223.59
2023-01-21T02:12:03.627Z,99216.00
2023-01-21T02:14:31.750Z,99217.50
2023-01-21T02:17:17.429Z,99214.00
2023-01-21T02:20:22.005Z,99219.88
2023-01-21T02:23:10.252Z,99219.06
2023-01-21T02:25:42.597Z,99211.19
2023-01-21T02:28:43.609Z,99213.81
2023-01-21T02:31:28.565Z,99214.59
2023-01-21T02:34:16.991Z,99220.56
2023-01-21T02:37:02.885Z,99218.81
2023-01-21T02:40:04.837Z,99220.66
2023-01-21T02:42:42.030Z,99224.97
2023-01-21T02:45:29.945Z,99224.16
2023-01-21T02:48:20.200Z,99221.72
2023-01-21T02:50:53.147Z,99226.06
2023-01-21T02:53:31.775Z,99231.31
2023-01-21T02:56:06.369Z,99231.31
2023-01-21T02:58:36.509Z,99231.31
2023-01-21T03:01:27.890Z,99231.31
2023-01-21T03:04:27.013Z,99233.88
2023-01-21T03:06:56.519Z,99240.84
2023-01-21T03:09:29.664Z,99238.22
2023-01-21T03:12:23.997Z,99240.84
2023-01-21T03:15:20.615Z,99247.00
2023-01-21T03:18:01.152Z,99253.28
2023-01-21T03:20:33.021Z,99245.59
2023-01-21T03:23:06.381Z,99243.81
2023-01-21T03:25:35.219Z,99246.44
2023-01-21T03:28:08.306Z,99239.56
2023-01-21T03:30:37.516Z,99239.56
2023-01-21T03:33:05.802Z,99242.44
2023-01-21T03:35:37.744Z,99244.06
2023-01-21T03:38:12.086Z,99253.56
2023-01-21T03:40:48.165Z,99251.56
2023-01-21T03:43:14.937Z,99259.31
2023-01-21T03:45:54.777Z,99253.66
2023-01-21T03:48:32.052Z,99263.13
2023-01-21T03:51:10.285Z,99255.50
2023-01-21T03:53:37.008Z,99259.69
2023-01-21T03:56:04.599Z,99258.13
2023-01-21T03:58:31.341Z,99258.22
2023-01-21T04:00:58.033Z,99258.94
2023-01-21T04:03:24.698Z,99263.03
2023-01-21T04:05:51.645Z,99265.97
2023-01-21T04:08:18.181Z,99276.25
2023-01-21T04:10:44.862Z,99264.00
2023-01-21T04:13:11.474Z,99262.56
2023-01-21T04:15:38.017Z,99260.81
2023-01-21T04:18:04.622Z,99264.31
2023-01-21T04:20:31.570Z,99271.00
2023-01-21T04:22:58.274Z,99269.16
2023-01-21T04:25:25.000Z,99266.09
2023-01-21T04:27:51.574Z,99265.38
2023-01-21T04:30:18.495Z,99261.44
2023-01-21T04:32:46.572Z,99260.44
2023-01-21T04:35:13.306Z,99260.56
2023-01-21T04:37:39.925Z,99267.41
2023-01-21T04:40:07.114Z,99266.72
2023-01-21T04:42:33.757Z,99273.00
2023-01-21T04:45:00.359Z,99279.13
2023-01-21T04:47:27.020Z,99273.75
2023-01-21T04:49:53.709Z,99275.31
2023-01-21T04:52:20.357Z,99276.63
2023-01-21T04:54:47.095Z,99282.47
2023-01-21T04:57:13.834Z,99279.66
2023-01-21T04:59:40.330Z,99279.72
2023-01-21T05:02:06.907Z,99279.75
2023-01-21T05:04:33.584Z,99288.31
2023-01-21T05:07:00.327Z,99286.56
2023-01-21T05:09:27.365Z,99285.06
2023-01-21T05:11:53.955Z,99288.81
2023-01-21T05:14:20.636Z,99284.91
2023-01-21T05:16:47.367Z,99284.81
2023-01-21T05:19:14.023Z,99290.22
2023-01-21T05:21:40.758Z,99288.03
2023-01-21T05:24:07.967Z,99291.72
2023-01-21T05:26:34.606Z,99296.75
2023-01-21T05:29:01.226Z,99297.09
2023-01-21T05:31:27.837Z,99300.03
2023-01-21T05:33:56.883Z,99301.69
2023-01-21T05:36:23.999Z,99307.75
2023-01-21T05:38:50.504Z,99308.28
2023-01-21T05:41:18.006Z,99306.63
2023-01-21T05:43:44.796Z,99321.22
2023-01-21T05:46:11.557Z,99313.53
2023-01-21T05:48:38.166Z,99312.66
2023-01-21T05:51:05.472Z,99314.31
2023-01-21T05:53:32.138Z,99318.69
2023-01-21T05:55:59.063Z,99328.00
2023-01-21T05:58:26.062Z,99316.78
2023-01-21T06:00:52.883Z,99321.84
2023-01-21T06:03:19.910Z,99329.75
2023-01-21T06:05:49.253Z,99321.09
2023-01-21T06:08:16.309Z,99329.75
2023-01-21T06:10:42.908Z,99329.50
2023-01-21T06:13:12.861Z,99337.81
2023-01-21T06:15:39.756Z,99338.19
2023-01-21T06:18:06.480Z,99344.13
2023-01-21T06:20:33.284Z,99340.06
2023-01-21T06:23:02.161Z,99342.44
2023-01-21T06:25:28.813Z,99341.72
2023-01-21T06:27:56.172Z,99346.59
2023-01-21T06:30:24.547Z,99345.22
2023-01-21T06:32:51.503Z,99347.84
2023-01-21T06:35:18.877Z,99354.69
2023-01-21T06:37:46.177Z,99353.00
2023-01-21T06:40:13.967Z,99361.66
2023-01-21T06:42:40.677Z,99362.63
2023-01-21T06:45:07.919Z,99364.88
2023-01-21T06:47:35.381Z,99369.22
2023-01-21T06:50:01.973Z,99377.56
2023-01-21T06:52:28.605Z,99372.59
2023-01-21T06:54:55.233Z,99380.63
2023-01-21T06:57:22.097Z,99390.81
2023-01-21T06:59:48.730Z,99394.59
2023-01-21T07:02:15.380Z,99384.78
2023-01-21T07:04:42.137Z,99395.44
2023-01-21T07:07:08.752Z,99388.94
2023-01-21T07:09:35.261Z,99391.69
2023-01-21T07:12:01.962Z,99396.34
2023-01-21T07:14:28.629Z,99406.44
2023-01-21T07:16:55.323Z,99407.91
2023-01-21T07:19:21.908Z,99407.63
2023-01-21T07:21:48.615Z,99409.47
2023-01-21T07:24:15.081Z,99416.38
2023-01-21T07:26:41.938Z,99416.63
2023-01-21T07:29:09.337Z,99427.59
2023-01-21T07:31:36.236Z,99420.41
2023-01-21T07:34:03.924Z,99426.63
2023-01-21T07:36:30.508Z,99424.22
2023-01-21T07:38:57.503Z,99430.53
2023-01-21T07:41:24.431Z,99428.25
2023-01-21T07:43:52.146Z,99441.06
2023-01-21T07:46:20.130Z,99433.88
2023-01-21T07:48:51.880Z,99437.28
2023-01-21T07:51:22.301Z,99436.38
2023-01-21T07:53:48.979Z,99446.53
2023-01-21T07:56:16.476Z,99442.91
2023-01-21T07:58:43.197Z,99446.75
2023-01-21T08:01:10.598Z,99455.56
2023-01-21T08:03:38.099Z,99451.56
2023-01-21T08:06:05.723Z,99454.13
2023-01-21T08:08:33.099Z,99449.81
2023-01-21T08:10:59.987Z,99445.72
2023-01-21T08:13:26.733Z,99452.28
2023-01-21T08:15:55.334Z,99457.53
2023-01-21T08:18:23.979Z,99458.34
2023-01-21T08:20:55.944Z,99462.28
2023-01-21T08:23:22.902Z,99462.41
2023-01-21T08:25:49.709Z,99470.13
2023-01-21T08:28:16.520Z,99465.38
2023-01-21T08:30:43.166Z,99458.13
2023-01-21T08:33:10.022Z,99458.47
2023-01-21T08:35:36.601Z,99461.91
2023-01-21T08:38:03.262Z,99455.53
2023-01-21T08:40:29.830Z,99447.91
2023-01-21T08:43:01.489Z,99450.22
2023-01-21T08:45:28.917Z,99447.91
2023-01-21T08:47:56.299Z,99452.78
2023-01-21T08:50:23.867Z,99443.34
2023-01-21T08:52:55.366Z,99448.84
2023-01-21T08:55:26.795Z,99441.44
2023-01-21T08:57:56.631Z,99447.19
2023-01-21T09:00:24.683Z,99440.91
2023-01-21T09:02:52.109Z,99449.97
2023-01-21T09:05:18.996Z,99452.88
2023-01-21T09:07:46.399Z,99449.47
2023-01-21T09:10:13.396Z,99461.16
2023-01-21T09:12:40.938Z,99458.22
2023-01-21T09:15:08.081Z,99460.28
2023-01-21T09:17:34.652Z,99453.25
2023-01-21T09:20:01.341Z,99453.50
2023-01-21T09:22:28.047Z,99463.41
2023-01-21T09:24:54.874Z,99464.63
2023-01-21T09:27:27.296Z,99457.16
2023-01-21T09:29:55.134Z,99458.78
2023-01-21T09:32:21.949Z,99461.44
2023-01-21T09:34:48.670Z,99464.28
2023-01-21T09:37:15.368Z,99460.28
2023-01-21T09:39:42.282Z,99463.88
2023-01-21T09:42:17.907Z,99464.56
2023-01-21T09:44:49.400Z,99468.84
2023-01-21T09:47:33.937Z,99468.59
2023-01-21T09:50:06.252Z,99476.00
2023-01-21T09:52:45.118Z,99479.34
2023-01-21T09:55:41.194Z,99469.34
2023-01-21T09:58:19.559Z,99476.66
2023-01-21T10:00:56.762Z,99474.88
2023-01-21T10:03:42.938Z,99474.06
2023-01-21T10:06:27.314Z,99470.09
2023-01-21T10:09:07.402Z,99473.69
2023-01-21T10:11:39.470Z,99470.72
2023-01-21T10:14:31.250Z,99471.63
2023-01-21T10:17:00.700Z,99475.75
2023-01-21T10:19:39.290Z,99471.09
2023-01-21T10:22:12.749Z,99474.50
2023-01-21T10:24:46.843Z,99466.16
2023-01-21T10:27:17.653Z,99468.53
2023-01-21T10:29:44.918Z,99469.19
2023-01-21T10:32:18.633Z,99464.09
2023-01-21T10:34:52.581Z,99464.31
2023-01-21T10:37:43.718Z,99470.53
2023-01-21T10:40:45.524Z,99471.94
2023-01-21T10:43:31.131Z,99469.50
2023-01-21T10:46:16.618Z,99469.47
2023-01-21T10:48:48.702Z,99466.63
2023-01-21T10:51:29.671Z,99464.56
2023-01-21T10:54:03.255Z,99460.91
2023-01-21T10:56:48.862Z,99469.47
2023-01-21T10:59:21.379Z,99476.25
2023-01-21T11:01:52.284Z,99472.84
2023-01-21T11:04:23.833Z,99474.63
2023-01-21T11:07:00.429Z,99463.22
2023-01-21T11:09:30.828Z,99463.00
2023-01-21T11:11:57.629Z,99465.47
2023-01-21T11:14:28.032Z,99477.47
2023-01-21T11:16:55.969Z,99472.19
2023-01-21T11:19:24.233Z,99467.50
2023-01-21T11:22:05.613Z,99477.69
2023-01-21T11:24:46.574Z,99468.66
2023-01-21T11:27:38.416Z,99473.88
2023-01-21T11:30:25.949Z,99462.34
2023-01-21T11:32:53.931Z,99465.38
2023-01-21T11:35:23.343Z,99457.41
2023-01-21T11:37:50.066Z,99460.69
2023-01-21T11:40:25.781Z,99462.34
2023-01-21T11:42:57.125Z,99458.16
2023-01-21T11:45:32.676Z,99465.31
2023-01-21T11:48:01.197Z,99454.38
2023-01-21T11:50:38.225Z,99454.72
2023-01-21T11:53:14.028Z,99455.88
2023-01-21T11:55:42.320Z,99455.69
2023-01-21T11:58:32.998Z,99451.72
2023-01-21T12:01:03.301Z,99446.41
2023-01-21T12:03:42.743Z,99450.63
2023-01-21T12:06:17.128Z,99448.97
2023-01-21T12:08:48.277Z,99448.88
2023-01-21T12:11:20.198Z,99453.00
2023-01-21T12:14:08.349Z,99444.06
2023-01-21T12:16:46.294Z,99436.38
2023-01-21T12:19:36.300Z,99450.72
2023-01-21T12:22:34.446Z,99449.66
2023-01-21T12:25:38.492Z,99439.00
2023-01-21T12:28:37.930Z,99438.69
2023-01-21T12:31:23.906Z,99435.94
2023-01-21T12:34:11.853Z,99438.78
2023-01-21T12:36:55.830Z,99441.16
2023-01-21T12:39:32.308Z,99439.56
2023-01-21T12:42:08.262Z,99430.03
2023-01-21T12:44:44.111Z,99440.00
2023-01-21T12:47:27.224Z,99432.19
2023-01-21T12:50:14.772Z,99435.06
2023-01-21T12:53:05.626Z,99433.63
2023-01-21T12:55:39.319Z,99442.84
2023-01-21T12:58:13.271Z,99434.41
2023-01-21T13:00:46.006Z,99440.34
2023-01-21T13:03:28.100Z,99426.94
2023-01-21T13:06:09.513Z,99428.78
2023-01-21T13:08:55.237Z,99436.44
2023-01-21T13:11:27.754Z,99425.19
2023-01-21T13:14:10.148Z,99426.94
2023-01-21T13:16:41.310Z,99431.88
2023-01-21T13:19:13.049Z,99425.59
2023-01-21T13:21:48.833Z,99437.31
2023-01-21T13:24:55.489Z,99437.34
2023-01-21T13:27:36.025Z,99445.16
2023-01-21T13:30:29.475Z,99441.81
2023-01-21T13:33:17.478Z,99437.34
2023-01-21T13:36:13.371Z,99441.69
2023-01-21T13:38:49.991Z,99436.75
2023-01-21T13:41:30.859Z,99443.34
2023-01-21T13:44:29.439Z,99438.50
2023-01-21T13:47:30.229Z,99438.41
2023-01-21T13:50:08.770Z,99427.47
2023-01-21T13:52:57.221Z,99432.41
2023-01-21T13:55:54.591Z,99430.53
2023-01-21T13:58:44.455Z,99437.66
2023-01-21T14:01:19.107Z,99431.53
2023-01-21T14:03:58.504Z,99425.59
2023-01-21T14:06:35.579Z,99433.34
2023-01-21T14:09:10.047Z,99426.19
2023-01-21T14:12:26.250Z,99416.69
2023-01-21T14:15:07.527Z,99413.28
2023-01-21T14:17:49.910Z,99411.66
2023-01-21T14:20:37.684Z,99415.69
2023-01-21T14:23:13.304Z,99406.69
2023-01-21T14:25:57.901Z,99406.03
2023-01-21T14:28:33.565Z,99410.41
2023-01-21T14:31:09.487Z,99398.44
2023-01-21T14:33:47.112Z,99411.19
2023-01-21T14:36:30.099Z,99411.59
2023-01-21T14:39:36.323Z,99413.41
2023-01-21T14:42:11.919Z,99407.22
2023-01-21T14:44:44.299Z,99405.53
2023-01-21T14:47:17.119Z,99402.63
2023-01-21T14:49:52.809Z,99400.28
2023-01-21T14:52:27.829Z,99400.25
2023-01-21T14:54:54.585Z,99412.59
2023-01-21T14:57:38.315Z,99401.03
2023-01-21T15:00:31.731Z,99393.28
2023-01-21T15:03:13.289Z,99383.88
2023-01-21T15:05:43.257Z,99384.88
2023-01-21T15:08:24.027Z,99388.28
2023-01-21T15:11:04.399Z,99383.13
2023-01-21T15:13:37.901Z,99386.75
2023-01-21T15:16:37.093Z,99383.25
2023-01-21T15:19:09.994Z,99390.38
2023-01-21T15:21:45.310Z,99377.25
2023-01-21T15:24:30.768Z,99376.41
2023-01-21T15:27:12.929Z,99377.38
2023-01-21T15:29:43.442Z,99374.97
2023-01-21T15:32:30.765Z,99366.09
2023-01-21T15:35:22.176Z,99366.78
2023-01-21T15:37:52.468Z,99359.75
2023-01-21T15:40:25.047Z,99364.75
2023-01-21T15:42:54.686Z,99356.16
2023-01-21T15:45:33.035Z,99352.03
2023-01-21T15:48:36.416Z,99352.81
2023-01-21T15:51:23.063Z,99341.72
2023-01-21T15:54:11.753Z,99353.78
2023-01-21T15:56:57.513Z,99345.22
2023-01-21T15:59:51.761Z,99335.72
2023-01-21T16:02:39.533Z,99341.97
2023-01-21T16:05:16.333Z,99329.72
2023-01-21T16:08:04.715Z,99340.16
2023-01-21T16:10:43.118Z,99345.50
2023-01-21T16:13:23.627Z,99340.34
2023-01-21T16:16:12.800Z,99339.56
2023-01-21T16:19:00.802Z,99339.75
2023-01-21T16:21:37.484Z,99325.00
2023-01-21T16:24:10.093Z,99329.38
2023-01-21T16:26:36.743Z,99321.53
2023-01-21T16:29:11.334Z,99321.00
2023-01-21T16:31:48.165Z,99320.16
2023-01-21T16:34:15.618Z,99319.47
2023-01-21T16:36:42.247Z,99322.31
2023-01-21T16:39:11.737Z,99324.94
2023-01-21T16:41:39.821Z,99318.09
2023-01-21T16:44:06.643Z,99325.81
2023-01-21T16:46:37.680Z,99320.72
2023-01-21T16:49:12.255Z,99318.81
2023-01-21T16:51:42.079Z,99311.84
2023-01-21T16:54:18.194Z,99299.97
2023-01-21T16:56:50.674Z,99309.34
2023-01-21T16:59:38.472Z,99306.84
2023-01-21T17:02:15.977Z,99305.13
2023-01-21T17:04:42.716Z,99299.03
2023-01-21T17:07:26.686Z,99294.72
2023-01-21T17:10:17.692Z,99296.34
2023-01-21T17:12:55.181Z,99310.09
2023-01-21T17:15:38.686Z,99308.50
2023-01-21T17:18:09.473Z,99315.28
2023-01-21T17:20:42.664Z,99305.09
2023-01-21T17:23:18.779Z,99317.34
2023-01-21T17:25:54.889Z,99305.13
2023-01-21T17:28:32.238Z,99296.66
2023-01-21T17:31:21.559Z,99294.25
2023-01-21T17:34:01.997Z,99293.38
2023-01-21T17:36:39.826Z,99296.84
2023-01-21T17:39:09.296Z,99292.50
2023-01-21T17:41:38.817Z,99287.19
2023-01-21T17:44:19.685Z,99293.03
2023-01-21T17:46:47.933Z,99294.00
2023-01-21T17:49:20.458Z,99289.41
2023-01-21T17:51:49.429Z,99282.31
2023-01-21T17:54:26.117Z,99285.69
2023-01-21T17:57:00.400Z,99283.34
2023-01-21T17:59:41.272Z,99281.41
2023-01-21T18:02:13.333Z,99286.53
2023-01-21T18:04:40.891Z,99278.94
2023-01-21T18:07:35.603Z,99273.84
2023-01-21T18:10:03.061Z,99278.41
2023-01-21T18:12:29.787Z,99287.69
2023-01-21T18:14:56.362Z,99284.19
2023-01-21T18:17:25.031Z,99293.63
2023-01-21T18:19:51.808Z,99279.72
2023-01-21T18:22:32.011Z,99288.94
2023-01-21T18:25:00.424Z,99285.84
2023-01-21T18:27:27.027Z,99278.00
2023-01-21T18:29:54.106Z,99291.84
2023-01-21T18:32:20.829Z,99279.59
2023-01-21T18:34:47.536Z,99283.91
2023-01-21T18:37:17.328Z,99275.03
2023-01-21T18:39:44.035Z,99275.91
2023-01-21T18:42:15.783Z,99267.13
2023-01-21T18:44:43.242Z,99267.47
2023-01-21T18:47:15.389Z,99262.16
2023-01-21T18:49:42.381Z,99257.69
2023-01-21T18:52:17.622Z,99263.53
2023-01-21T18:54:44.481Z,99256.66
2023-01-21T18:57:22.622Z,99257.63
2023-01-21T18:59:49.393Z,99248.34
2023-01-21T19:02:18.848Z,99250.78
2023-01-21T19:04:46.799Z,99239.78
2023-01-21T19:07:19.305Z,99240.81
2023-01-21T19:09:46.880Z,99234.31
2023-01-21T19:12:16.575Z,99239.56
2023-01-21T19:14:43.355Z,99234.56
2023-01-21T19:17:12.742Z,99240.69
2023-01-21T19:19:39.937Z,99242.28
2023-01-21T19:22:10.615Z,99237.81
2023-01-21T19:24:37.268Z,99237.97
2023-01-21T19:27:03.992Z,99234.69
2023-01-21T19:29:30.763Z,99234.84
2023-01-21T19:31:57.329Z,99237.09
2023-01-21T19:34:26.263Z,99237.38
2023-01-21T19:36:53.710Z,99232.03
2023-01-21T19:39:24.087Z,99236.31
2023-01-21T19:42:03.413Z,99226.84
2023-01-21T19:44:34.110Z,99233.09
2023-01-21T19:47:01.476Z,99233.56
2023-01-21T19:49:28.246Z,99230.19
2023-01-21T19:51:54.863Z,99228.59
2023-01-21T19:54:21.630Z,99235.34
2023-01-21T19:56:48.297Z,99227.00
2023-01-21T19:59:16.243Z,99237.19
2023-01-21T20:01:44.463Z,99228.84
2023-01-21T20:04:11.296Z,99235.56
2023-01-21T20:06:40.466Z,99234.56
2023-01-21T20:09:11.332Z,99244.22
2023-01-21T20:11:38.074Z,99241.78
2023-01-21T20:14:04.714Z,99236.75
2023-01-21T20:16:31.505Z,99239.22
2023-01-21T20:19:02.151Z,99236.28
2023-01-21T20:21:28.949Z,99233.16
2023-01-21T20:23:55.539Z,99238.28
2023-01-21T20:26:27.009Z,99239.84
2023-01-21T20:28:54.728Z,99238.16
2023-01-21T20:31:21.663Z,99233.78
2023-01-21T20:33:48.549Z,99239.13
2023-01-21T20:36:20.035Z,99245.25
2023-01-21T20:38:46.768Z,99238.84
2023-01-21T20:41:13.962Z,99242.56
2023-01-21T20:43:40.812Z,99250.25
2023-01-21T20:46:15.510Z,99247.53
2023-01-21T20:48:44.144Z,99242.56
2023-01-21T20:51:11.572Z,99251.22
2023-01-21T20:53:38.811Z,99238.97
2023-01-21T20:56:19.611Z,99249.66
2023-01-21T20:58:48.077Z,99242.44
2023-01-21T21:01:16.505Z,99247.72
2023-01-21T21:03:43.710Z,99247.78
2023-01-21T21:06:16.657Z,99239.22
2023-01-21T21:08:43.940Z,99238.94
2023-01-21T21:11:11.525Z,99239.84
2023-01-21T21:13:38.260Z,99233.97
2023-01-21T21:16:37.577Z,99231.41
2023-01-21T21:19:04.404Z,99239.13
2023-01-21T21:21:30.982Z,99238.28
2023-01-21T21:23:57.795Z,99243.44
2023-01-21T21:26:33.362Z,99238.28
2023-01-21T21:29:00.065Z,99235.53
2023-01-21T21:31:32.101Z,99243.47
2023-01-21T21:33:58.999Z,99238.97
2023-01-21T21:36:25.553Z,99241.69
2023-01-21T21:38:55.735Z,99244.38
2023-01-21T21:41:43.246Z,99243.53
2023-01-21T21:44:10.891Z,99242.56
2023-01-21T21:46:57.135Z,99242.44
2023-01-21T21:49:24.185Z,99240.25
2023-01-21T21:51:50.795Z,99245.13
2023-01-21T21:54:18.646Z,99239.47
2023-01-21T21:56:46.199Z,99242.06
2023-01-21T21:59:13.308Z,99253.16
2023-01-21T22:01:42.002Z,99252.09
2023-01-21T22:04:08.712Z,99251.44
2023-01-21T22:06:35.358Z,99247.31
2023-01-21T22:09:02.097Z,99255.09
2023-01-21T22:11:29.397Z,99258.41
2023-01-21T22:13:56.535Z,99256.84
2023-01-21T22:16:26.462Z,99254.13
2023-01-21T22:18:54.218Z,99253.25
2023-01-21T22:21:23.580Z,99256.78
2023-01-21T22:23:51.063Z,99257.69
2023-01-21T22:26:21.276Z,99260.03
2023-01-21T22:28:48.591Z,99251.22
2023-01-21T22:31:27.623Z,99269.47
2023-01-21T22:33:55.367Z,99268.00
2023-01-21T22:36:25.501Z,99261.81
2023-01-21T22:38:52.610Z,99266.34
2023-01-21T22:41:21.741Z,99258.31
2023-01-21T22:43:49.902Z,99266.09
2023-01-21T22:46:19.840Z,99261.75
2023-01-21T22:48:46.962Z,99261.97
2023-01-21T22:51:15.888Z,99266.72
2023-01-21T22:53:45.891Z,99260.00
2023-01-21T22:56:15.554Z,99259.06
2023-01-21T22:58:42.620Z,99261.94
2023-01-21T23:01:19.865Z,99256.84
2023-01-21T23:03:46.421Z,99262.03
2023-01-21T23:06:13.286Z,99256.53
2023-01-21T23:08:40.015Z,99256.47
2023-01-21T23:11:08.219Z,99252.88
2023-01-21T23:13:35.570Z,99255.00
2023-01-21T23:16:02.426Z,99256.09
2023-01-21T23:18:29.537Z,99254.06
2023-01-21T23:20:56.817Z,99255.81
2023-01-21T23:23:24.858Z,99254.91
2023-01-21T23:25:51.644Z,99252.16
2023-01-21T23:28:18.369Z,99253.97
2023-01-21T23:30:45.061Z,99249.81
2023-01-21T23:33:12.219Z,99254.91
2023-01-21T23:35:38.974Z,99249.78
2023-01-21T23:38:05.576Z,99252.47
2023-01-21T23:40:32.317Z,99244.50
2023-01-21T23:42:58.932Z,99248.25
2023-01-21T23:45:25.622Z,99251.50
2023-01-21T23:47:52.238Z,99252.09
2023-01-21T23:50:19.026Z,99254.91
2023-01-21T23:52:45.746Z,99255.88
2023-01-21T23:55:12.979Z,99254.00
2023-01-21T23:57:39.697Z,99249.69
